createdAt,value
2023-04-19T00:00:31.846Z,99.99
2023-04-19T00:01:31.849Z,99.99
2023-04-19T00:02:32.008Z,99.99
2023-04-19T00:03:32.211Z,99.99
2023-04-19T00:04:31.983Z,99.99
2023-04-19T00:05:32.062Z,99.99
2023-04-19T00:06:31.910Z,99.99
2023-04-19T00:07:31.924Z,99.99
2023-04-19T00:08:31.926Z,99.99
2023-04-19T00:09:31.948Z,99.99
2023-04-19T00:10:31.946Z,99.99
2023-04-19T00:11:31.961Z,99.99
2023-04-19T00:12:31.972Z,99.99
2023-04-19T00:13:31.984Z,99.99
2023-04-19T00:14:31.986Z,99.99
2023-04-19T00:15:32.006Z,99.99
2023-04-19T00:16:32.124Z,99.99
2023-04-19T00:17:32.046Z,99.99
2023-04-19T00:18:32.041Z,99.99
2023-04-19T00:19:32.048Z,99.99
2023-04-19T00:20:32.059Z,99.99
2023-04-19T00:21:32.067Z,99.99
2023-04-19T00:22:32.080Z,99.99
2023-04-19T00:23:32.092Z,99.99
2023-04-19T00:24:32.102Z,99.99
2023-04-19T00:25:32.131Z,99.99
2023-04-19T00:26:32.124Z,99.99
2023-04-19T00:27:32.156Z,99.99
2023-04-19T00:28:32.155Z,99.99
2023-04-19T00:29:32.159Z,99.99
2023-04-19T00:30:32.216Z,99.99
2023-04-19T00:31:32.219Z,99.99
2023-04-19T00:32:32.248Z,99.99
2023-04-19T00:33:32.204Z,99.99
2023-04-19T00:34:32.220Z,99.99
2023-04-19T00:35:32.225Z,99.99
2023-04-19T00:36:32.233Z,99.99
2023-04-19T00:37:32.252Z,99.99
2023-04-19T00:38:32.262Z,99.99
2023-04-19T00:39:32.271Z,99.99
2023-04-19T00:40:32.283Z,99.99
2023-04-19T00:41:32.290Z,99.99
2023-04-19T00:42:32.330Z,99.99
2023-04-19T00:43:32.314Z,99.99
2023-04-19T00:44:32.324Z,99.99
2023-04-19T00:45:32.344Z,99.99
2023-04-19T00:46:32.387Z,99.99
2023-04-19T00:47:32.382Z,99.99
2023-04-19T00:48:32.399Z,99.99
2023-04-19T00:49:32.381Z,99.99
2023-04-19T00:50:32.392Z,99.99
2023-04-19T00:51:32.401Z,99.99
2023-04-19T00:52:32.418Z,99.99
2023-04-19T00:53:32.425Z,99.99
2023-04-19T00:54:32.433Z,99.99
2023-04-19T00:55:32.445Z,99.99
2023-04-19T00:56:32.456Z,99.99
2023-04-19T00:57:32.489Z,99.99
2023-04-19T00:58:32.481Z,99.99
2023-04-19T00:59:32.514Z,99.99
2023-04-19T01:00:32.503Z,99.99
2023-04-19T01:01:32.573Z,99.99
2023-04-19T01:02:32.597Z,99.99
2023-04-19T01:03:32.795Z,99.99
2023-04-19T01:04:32.677Z,99.99
2023-04-19T01:05:32.562Z,99.99
2023-04-19T01:06:32.573Z,99.99
2023-04-19T01:07:32.578Z,99.99
2023-04-19T01:08:32.590Z,99.99
2023-04-19T01:09:32.600Z,99.99
2023-04-19T01:10:32.616Z,99.99
2023-04-19T01:11:32.626Z,99.99
2023-04-19T01:12:32.635Z,99.99
2023-04-19T01:13:32.643Z,99.99
2023-04-19T01:14:32.654Z,99.99
2023-04-19T01:15:32.709Z,99.99
2023-04-19T01:16:32.718Z,99.99
2023-04-19T01:17:32.729Z,99.99
2023-04-19T01:18:32.703Z,99.99
2023-04-19T01:19:32.707Z,99.99
2023-04-19T01:20:32.744Z,99.99
2023-04-19T01:21:32.742Z,99.99
2023-04-19T01:22:32.741Z,99.99
2023-04-19T01:23:32.764Z,99.99
2023-04-19T01:24:32.766Z,99.99
2023-04-19T01:25:32.780Z,99.99
2023-04-19T01:26:32.790Z,99.99
2023-04-19T01:27:32.816Z,99.99
2023-04-19T01:28:32.808Z,99.99
2023-04-19T01:29:32.824Z,99.99
2023-04-19T01:30:32.826Z,99.99
2023-04-19T01:31:32.889Z,99.99
2023-04-19T01:32:32.873Z,99.99
2023-04-19T01:33:32.865Z,99.99
2023-04-19T01:34:32.875Z,99.99
2023-04-19T01:35:32.884Z,99.99
2023-04-19T01:36:32.895Z,99.99
2023-04-19T01:37:32.908Z,99.99
2023-04-19T01:38:32.918Z,99.99
2023-04-19T01:39:32.931Z,99.99
2023-04-19T01:40:32.941Z,99.99
2023-04-19T01:41:32.963Z,99.99
2023-04-19T01:42:32.962Z,99.99
2023-04-19T01:43:32.971Z,99.99
2023-04-19T01:44:32.984Z,99.99
2023-04-19T01:45:32.994Z,99.99
2023-04-19T01:46:33.011Z,99.99
2023-04-19T01:47:33.046Z,99.99
2023-04-19T01:48:33.025Z,99.99
2023-04-19T01:49:33.033Z,99.99
2023-04-19T01:50:33.057Z,99.99
2023-04-19T01:51:33.056Z,99.99
2023-04-19T01:52:33.069Z,99.99
2023-04-19T01:53:33.078Z,99.99
2023-04-19T01:54:33.093Z,99.99
2023-04-19T01:55:33.104Z,99.99
2023-04-19T01:56:33.110Z,99.99
2023-04-19T01:57:33.122Z,99.99
2023-04-19T01:58:33.129Z,99.99
2023-04-19T01:59:33.147Z,99.99
2023-04-19T02:00:33.175Z,99.99
2023-04-19T02:01:33.176Z,99.99
2023-04-19T02:02:33.265Z,99.99
2023-04-19T02:03:33.281Z,99.99
2023-04-19T02:04:33.191Z,99.99
2023-04-19T02:05:33.200Z,99.99
2023-04-19T02:06:33.214Z,99.99
2023-04-19T02:07:33.230Z,99.99
2023-04-19T02:08:33.237Z,99.99
2023-04-19T02:09:33.244Z,99.99
2023-04-19T02:10:33.256Z,99.99
2023-04-19T02:11:33.278Z,99.99
2023-04-19T02:12:33.285Z,99.99
2023-04-19T02:13:33.293Z,99.99
2023-04-19T02:14:33.297Z,99.99
2023-04-19T02:15:33.311Z,99.99
2023-04-19T02:16:35.613Z,99.99
2023-04-19T02:17:33.381Z,99.99
2023-04-19T02:18:33.351Z,99.99
2023-04-19T02:19:33.351Z,99.99
2023-04-19T02:20:33.360Z,99.99
2023-04-19T02:21:33.373Z,99.99
2023-04-19T02:22:33.381Z,99.99
2023-04-19T02:23:33.403Z,99.99
2023-04-19T02:24:33.407Z,99.99
2023-04-19T02:25:33.412Z,99.99
2023-04-19T02:26:33.425Z,99.99
2023-04-19T02:27:33.431Z,99.99
2023-04-19T02:28:33.443Z,99.99
2023-04-19T02:29:33.454Z,99.99
2023-04-19T02:30:33.468Z,99.99
2023-04-19T02:31:33.541Z,99.99
2023-04-19T02:32:33.496Z,99.99
2023-04-19T02:33:33.508Z,99.99
2023-04-19T02:34:33.502Z,99.99
2023-04-19T02:35:33.514Z,99.99
2023-04-19T02:36:33.526Z,99.99
2023-04-19T02:37:33.533Z,99.99
2023-04-19T02:38:33.570Z,99.99
2023-04-19T02:39:33.554Z,99.99
2023-04-19T02:40:33.568Z,99.99
2023-04-19T02:41:33.574Z,99.99
2023-04-19T02:42:33.584Z,99.99
2023-04-19T02:43:33.594Z,99.99
2023-04-19T02:44:33.606Z,99.99
2023-04-19T02:45:33.615Z,99.99
2023-04-19T02:46:33.769Z,99.99
2023-04-19T02:47:33.707Z,99.99
2023-04-19T02:48:33.642Z,99.99
2023-04-19T02:49:33.658Z,99.99
2023-04-19T02:50:33.661Z,99.99
2023-04-19T02:51:33.685Z,99.99
2023-04-19T02:52:33.681Z,99.99
2023-04-19T02:53:33.705Z,99.99
2023-04-19T02:54:33.728Z,99.99
2023-04-19T02:55:33.715Z,99.99
2023-04-19T02:56:33.723Z,99.99
2023-04-19T02:57:33.731Z,99.99
2023-04-19T02:58:33.751Z,99.99
2023-04-19T02:59:33.749Z,99.99
2023-04-19T03:00:33.761Z,99.99
2023-04-19T03:01:33.812Z,99.99
2023-04-19T03:02:34.013Z,99.99
2023-04-19T03:03:33.918Z,99.99
2023-04-19T03:04:33.924Z,99.99
2023-04-19T03:05:33.810Z,99.99
2023-04-19T03:06:33.821Z,99.99
2023-04-19T03:07:33.831Z,99.99
2023-04-19T03:08:33.854Z,99.99
2023-04-19T03:09:33.857Z,99.99
2023-04-19T03:10:33.870Z,99.99
2023-04-19T03:11:33.880Z,99.99
2023-04-19T03:12:33.880Z,99.99
2023-04-19T03:13:33.887Z,99.99
2023-04-19T03:14:33.898Z,99.99
2023-04-19T03:15:33.941Z,99.99
2023-04-19T03:16:33.922Z,99.99
2023-04-19T03:17:33.966Z,99.99
2023-04-19T03:18:33.938Z,99.99
2023-04-19T03:19:33.945Z,99.99
2023-04-19T03:20:33.954Z,99.99
2023-04-19T03:21:33.965Z,99.99
2023-04-19T03:22:33.977Z,99.99
2023-04-19T03:23:33.981Z,99.99
2023-04-19T03:24:35.516Z,99.99
2023-04-19T03:25:34.006Z,99.99
2023-04-19T03:26:34.007Z,99.99
2023-04-19T03:27:34.025Z,99.99
2023-04-19T03:28:34.026Z,99.99
2023-04-19T03:29:34.036Z,99.99
2023-04-19T03:30:34.054Z,99.99
2023-04-19T03:31:34.130Z,99.99
2023-04-19T03:32:34.078Z,99.99
2023-04-19T03:33:34.074Z,99.99
2023-04-19T03:34:34.081Z,99.99
2023-04-19T03:35:34.094Z,99.99
2023-04-19T03:36:34.106Z,99.99
2023-04-19T03:37:34.113Z,99.99
2023-04-19T03:38:34.125Z,99.99
2023-04-19T03:39:34.128Z,99.99
2023-04-19T03:40:34.143Z,99.99
2023-04-19T03:41:34.150Z,99.99
2023-04-19T03:42:34.166Z,99.99
2023-04-19T03:43:34.169Z,99.99
2023-04-19T03:44:34.180Z,99.99
2023-04-19T03:45:34.192Z,99.99
2023-04-19T03:46:34.224Z,99.99
2023-04-19T03:47:34.262Z,99.99
2023-04-19T03:48:34.218Z,99.99
2023-04-19T03:49:34.230Z,99.99
2023-04-19T03:50:34.232Z,99.99
2023-04-19T03:51:34.244Z,99.99
2023-04-19T03:52:34.258Z,99.99
2023-04-19T03:53:34.263Z,99.99
2023-04-19T03:54:34.268Z,99.99
2023-04-19T03:55:34.288Z,99.99
2023-04-19T03:56:34.297Z,99.99
2023-04-19T03:57:34.310Z,99.99
2023-04-19T03:58:34.312Z,99.99
2023-04-19T03:59:34.321Z,99.99
2023-04-19T04:00:34.332Z,99.99
2023-04-19T04:01:34.340Z,99.99
2023-04-19T04:02:34.502Z,99.99
2023-04-19T04:03:34.528Z,99.99
2023-04-19T04:04:34.784Z,99.99
2023-04-19T04:05:34.511Z,99.99
2023-04-19T04:06:34.385Z,99.99
2023-04-19T04:07:34.443Z,99.99
2023-04-19T04:08:34.402Z,99.99
2023-04-19T04:09:34.409Z,99.99
2023-04-19T04:10:34.422Z,99.99
2023-04-19T04:11:34.431Z,99.99
2023-04-19T04:12:34.440Z,99.99
2023-04-19T04:13:34.469Z,99.99
2023-04-19T04:14:34.459Z,99.99
2023-04-19T04:15:34.467Z,99.99
2023-04-19T04:16:34.527Z,99.99
2023-04-19T04:17:34.527Z,99.99
2023-04-19T04:18:34.508Z,99.99
2023-04-19T04:19:34.506Z,99.99
2023-04-19T04:20:34.514Z,99.99
2023-04-19T04:21:34.519Z,99.99
2023-04-19T04:22:34.532Z,99.99
2023-04-19T04:23:34.541Z,99.99
2023-04-19T04:24:34.546Z,99.99
2023-04-19T04:25:34.570Z,99.99
2023-04-19T04:26:34.569Z,99.99
2023-04-19T04:27:34.585Z,99.99
2023-04-19T04:28:34.611Z,99.99
2023-04-19T04:29:34.602Z,99.99
2023-04-19T04:30:34.614Z,99.99
2023-04-19T04:31:34.660Z,99.99
2023-04-19T04:32:34.697Z,99.99
2023-04-19T04:33:34.658Z,99.99
2023-04-19T04:34:34.654Z,99.99
2023-04-19T04:35:34.670Z,99.99
2023-04-19T04:36:34.679Z,99.99
2023-04-19T04:37:34.695Z,99.99
2023-04-19T04:38:34.706Z,99.99
2023-04-19T04:39:34.706Z,99.99
2023-04-19T04:40:34.723Z,99.99
2023-04-19T04:41:34.727Z,99.99
2023-04-19T04:42:34.753Z,99.99
2023-04-19T04:43:34.747Z,99.99
2023-04-19T04:44:34.756Z,99.99
2023-04-19T04:45:34.778Z,99.99
2023-04-19T04:46:34.778Z,99.99
2023-04-19T04:47:34.874Z,99.99
2023-04-19T04:48:34.801Z,99.99
2023-04-19T04:49:34.816Z,99.99
2023-04-19T04:50:34.817Z,99.99
2023-04-19T04:51:34.847Z,99.99
2023-04-19T04:52:34.839Z,99.99
2023-04-19T04:53:34.847Z,99.99
2023-04-19T04:54:34.851Z,99.99
2023-04-19T04:55:34.871Z,99.99
2023-04-19T04:56:34.913Z,99.99
2023-04-19T04:57:34.884Z,99.99
2023-04-19T04:58:34.894Z,99.99
2023-04-19T04:59:34.903Z,99.99
2023-04-19T05:00:34.917Z,99.99
2023-04-19T05:01:34.950Z,99.99
2023-04-19T05:02:35.012Z,99.99
2023-04-19T05:03:35.001Z,99.99
2023-04-19T05:04:34.967Z,99.99
2023-04-19T05:05:34.960Z,99.99
2023-04-19T05:06:34.973Z,99.99
2023-04-19T05:07:34.984Z,99.99
2023-04-19T05:08:34.985Z,99.99
2023-04-19T05:09:35.007Z,99.99
2023-04-19T05:10:35.022Z,99.99
2023-04-19T05:11:35.026Z,99.99
2023-04-19T05:12:35.029Z,99.99
2023-04-19T05:13:35.034Z,99.99
2023-04-19T05:14:35.054Z,99.99
2023-04-19T05:15:35.052Z,99.99
2023-04-19T05:16:35.094Z,99.99
2023-04-19T05:17:35.105Z,99.99
2023-04-19T05:18:35.075Z,99.99
2023-04-19T05:19:35.086Z,99.99
2023-04-19T05:20:35.110Z,99.99
2023-04-19T05:21:35.165Z,99.99
2023-04-19T05:22:35.118Z,99.99
2023-04-19T05:23:35.134Z,99.99
2023-04-19T05:24:35.138Z,99.99
2023-04-19T05:25:35.148Z,99.99
2023-04-19T05:26:35.168Z,99.99
2023-04-19T05:27:35.165Z,99.99
2023-04-19T05:28:35.172Z,99.99
2023-04-19T05:29:35.182Z,99.99
2023-04-19T05:30:35.198Z,99.99
2023-04-19T05:31:35.279Z,99.99
2023-04-19T05:32:35.299Z,99.99
2023-04-19T05:33:35.221Z,99.99
2023-04-19T05:34:35.232Z,99.99
2023-04-19T05:35:35.242Z,99.99
2023-04-19T05:36:35.257Z,99.99
2023-04-19T05:37:35.265Z,99.99
2023-04-19T05:38:35.274Z,99.99
2023-04-19T05:39:35.286Z,99.99
2023-04-19T05:40:35.293Z,99.99
2023-04-19T05:41:35.309Z,99.99
2023-04-19T05:42:35.310Z,99.99
2023-04-19T05:43:35.325Z,99.99
2023-04-19T05:44:35.335Z,99.99
2023-04-19T05:45:35.349Z,99.99
2023-04-19T05:46:35.428Z,99.99
2023-04-19T05:47:35.369Z,99.99
2023-04-19T05:48:35.369Z,99.99
2023-04-19T05:49:35.383Z,99.99
2023-04-19T05:50:35.392Z,99.99
2023-04-19T05:51:35.401Z,99.99
2023-04-19T05:52:35.419Z,99.99
2023-04-19T05:53:35.434Z,99.99
2023-04-19T05:54:35.430Z,99.99
2023-04-19T05:55:35.444Z,99.99
2023-04-19T05:56:35.452Z,99.99
2023-04-19T05:57:35.463Z,99.99
2023-04-19T05:58:35.471Z,99.99
2023-04-19T05:59:35.489Z,99.99
2023-04-19T06:00:35.513Z,99.99
2023-04-19T06:01:35.500Z,99.99
2023-04-19T06:02:35.618Z,99.99
2023-04-19T06:03:35.659Z,99.99
2023-04-19T06:04:35.635Z,99.99
2023-04-19T06:05:35.565Z,99.99
2023-04-19T06:06:35.549Z,99.99
2023-04-19T06:07:40.226Z,99.99
2023-04-19T06:08:35.574Z,99.99
2023-04-19T06:09:35.598Z,99.99
2023-04-19T06:10:48.971Z,99.99
2023-04-19T06:11:47.144Z,99.99
2023-04-19T06:12:35.612Z,99.99
2023-04-19T06:13:35.627Z,99.99
2023-04-19T06:14:35.631Z,99.99
2023-04-19T06:15:35.652Z,99.99
2023-04-19T06:16:35.678Z,99.99
2023-04-19T06:17:35.736Z,99.99
2023-04-19T06:18:35.683Z,99.99
2023-04-19T06:19:35.690Z,99.99
2023-04-19T06:20:35.698Z,99.99
2023-04-19T06:21:35.728Z,99.99
2023-04-19T06:22:35.723Z,99.99
2023-04-19T06:23:35.740Z,99.99
2023-04-19T06:24:35.750Z,99.99
2023-04-19T06:25:35.755Z,99.99
2023-04-19T06:26:35.774Z,99.99
2023-04-19T06:27:35.777Z,99.99
2023-04-19T06:28:35.787Z,99.99
2023-04-19T06:29:35.826Z,99.99
2023-04-19T06:30:35.817Z,99.99
2023-04-19T06:31:35.829Z,99.99
2023-04-19T06:32:35.880Z,99.99
2023-04-19T06:33:35.879Z,99.99
2023-04-19T06:34:35.861Z,99.99
2023-04-19T06:35:35.879Z,99.99
2023-04-19T06:36:35.891Z,99.99
2023-04-19T06:37:35.907Z,99.99
2023-04-19T06:38:35.924Z,99.99
2023-04-19T06:39:35.925Z,99.99
2023-04-19T06:40:35.940Z,99.99
2023-04-19T06:41:35.955Z,99.99
2023-04-19T06:42:35.967Z,99.99
2023-04-19T06:43:35.982Z,99.99
2023-04-19T06:44:35.993Z,99.99
2023-04-19T06:45:36.048Z,99.99
2023-04-19T06:46:36.020Z,99.99
2023-04-19T06:47:36.101Z,99.99
2023-04-19T06:48:36.058Z,99.99
2023-04-19T06:49:36.064Z,99.99
2023-04-19T06:50:36.085Z,99.99
2023-04-19T06:51:36.093Z,99.99
2023-04-19T06:52:36.106Z,99.99
2023-04-19T06:53:36.121Z,99.99
2023-04-19T06:54:36.135Z,99.99
2023-04-19T06:55:36.163Z,99.99
2023-04-19T06:56:36.168Z,99.99
2023-04-19T06:57:36.183Z,99.99
2023-04-19T06:58:36.216Z,99.99
2023-04-19T06:59:36.210Z,99.99
2023-04-19T07:00:36.245Z,99.99
2023-04-19T07:01:36.264Z,99.99
2023-04-19T07:02:36.423Z,99.99
2023-04-19T07:03:36.416Z,99.99
2023-04-19T07:04:36.395Z,99.99
2023-04-19T07:05:36.412Z,99.99
2023-04-19T07:06:36.317Z,99.99
2023-04-19T07:07:36.332Z,99.99
2023-04-19T07:08:49.272Z,99.99
2023-04-19T07:09:36.371Z,99.75
2023-04-19T07:10:36.380Z,99.46
2023-04-19T07:11:36.397Z,99.27
2023-04-19T07:12:36.420Z,99.18
2023-04-19T07:13:36.435Z,98.32
2023-04-19T07:14:36.440Z,98.03
2023-04-19T07:15:36.544Z,97.94
2023-04-19T07:16:36.483Z,97.84
2023-04-19T07:17:36.626Z,97.99
2023-04-19T07:18:36.507Z,97.99
2023-04-19T07:19:36.541Z,97.80
2023-04-19T07:20:36.536Z,97.61
2023-04-19T07:21:36.556Z,97.51
2023-04-19T07:22:36.585Z,97.99
2023-04-19T07:23:36.588Z,97.32
2023-04-19T07:24:36.610Z,96.65
2023-04-19T07:25:36.618Z,95.37
2023-04-19T07:26:36.646Z,95.94
2023-04-19T07:27:36.654Z,95.75
2023-04-19T07:28:36.670Z,94.22
2023-04-19T07:29:36.696Z,93.55
2023-04-19T07:30:36.715Z,92.50
2023-04-19T07:31:36.772Z,92.60
2023-04-19T07:32:36.943Z,93.08
2023-04-19T07:33:36.755Z,93.08
2023-04-19T07:34:36.772Z,92.69
2023-04-19T07:35:36.790Z,92.22
2023-04-19T07:36:36.810Z,91.83
2023-04-19T07:37:36.825Z,91.55
2023-04-19T07:38:36.843Z,91.64
2023-04-19T07:39:36.858Z,91.17
2023-04-19T07:40:36.876Z,90.79
2023-04-19T07:41:36.896Z,90.69
2023-04-19T07:42:36.913Z,90.79
2023-04-19T07:43:38.151Z,91.36
2023-04-19T07:44:36.946Z,90.59
2023-04-19T07:45:36.964Z,90.59
2023-04-19T07:46:37.018Z,90.69
2023-04-19T07:47:37.104Z,90.79
2023-04-19T07:48:37.014Z,91.17
2023-04-19T07:49:37.037Z,91.17
2023-04-19T07:50:37.048Z,90.59
2023-04-19T07:51:37.073Z,90.73
2023-04-19T07:52:37.099Z,89.45
2023-04-19T07:53:37.105Z,88.64
2023-04-19T07:54:37.120Z,87.45
2023-04-19T07:55:37.144Z,88.64
2023-04-19T07:56:37.166Z,88.54
2023-04-19T07:57:37.179Z,89.02
2023-04-19T07:58:37.197Z,87.26
2023-04-19T07:59:37.213Z,87.21
2023-04-19T08:00:37.235Z,87.68
2023-04-19T08:01:37.394Z,88.12
2023-04-19T08:02:37.332Z,88.40
2023-04-19T08:03:37.440Z,87.83
2023-04-19T08:04:37.563Z,88.02
2023-04-19T08:05:37.349Z,88.74
2023-04-19T08:06:37.337Z,88.36
2023-04-19T08:07:37.363Z,87.88
2023-04-19T08:08:37.375Z,87.40
2023-04-19T08:09:37.458Z,88.41
2023-04-19T08:10:37.408Z,88.79
2023-04-19T08:11:37.426Z,89.55
2023-04-19T08:12:45.021Z,89.65
2023-04-19T08:13:37.815Z,89.26
2023-04-19T08:14:47.157Z,90.70
2023-04-19T08:16:20.175Z,91.51
2023-04-19T08:17:06.380Z,92.94
2023-04-19T08:17:42.127Z,92.41
2023-04-19T08:18:37.691Z,92.27
2023-04-19T08:19:37.561Z,92.18
2023-04-19T08:20:37.578Z,92.36
2023-04-19T08:21:41.000Z,91.51
2023-04-19T08:22:37.615Z,91.03
2023-04-19T08:23:47.380Z,91.51
2023-04-19T08:24:37.636Z,91.99
2023-04-19T08:25:37.665Z,92.18
2023-04-19T08:26:37.678Z,92.46
2023-04-19T08:27:37.692Z,92.27
2023-04-19T08:28:37.706Z,92.84
2023-04-19T08:29:37.712Z,92.84
2023-04-19T08:30:37.727Z,92.36
2023-04-19T08:31:37.770Z,93.41
2023-04-19T08:32:37.795Z,93.22
2023-04-19T08:33:37.775Z,92.94
2023-04-19T08:34:37.787Z,92.18
2023-04-19T08:35:37.802Z,92.74
2023-04-19T08:36:43.606Z,92.36
2023-04-19T08:37:37.862Z,92.46
2023-04-19T08:38:37.846Z,92.36
2023-04-19T08:39:38.043Z,92.18
2023-04-19T08:40:37.874Z,92.74
2023-04-19T08:41:37.889Z,92.84
2023-04-19T08:42:37.901Z,92.84
2023-04-19T08:43:39.213Z,92.27
2023-04-19T08:44:43.306Z,90.75
2023-04-19T08:45:38.006Z,89.89
2023-04-19T08:46:37.961Z,89.70
2023-04-19T08:47:48.236Z,89.70
2023-04-19T08:48:38.029Z,89.79
2023-04-19T08:49:39.954Z,89.32
2023-04-19T08:50:45.613Z,88.27
2023-04-19T08:51:38.033Z,88.84
2023-04-19T08:52:47.827Z,89.51
2023-04-19T08:53:38.064Z,89.94
2023-04-19T08:54:38.080Z,90.98
2023-04-19T08:55:39.852Z,90.17
2023-04-19T08:56:38.113Z,90.12
2023-04-19T08:57:38.124Z,90.03
2023-04-19T08:58:54.703Z,90.41
2023-04-19T08:59:38.154Z,90.70
2023-04-19T09:00:38.171Z,90.70
2023-04-19T09:01:38.188Z,89.26
2023-04-19T09:02:38.446Z,88.98
2023-04-19T09:03:51.182Z,88.89
2023-04-19T09:04:38.455Z,88.60
2023-04-19T09:05:38.634Z,88.70
2023-04-19T09:06:38.508Z,88.70
2023-04-19T09:07:38.301Z,88.31
2023-04-19T09:08:38.293Z,88.36
2023-04-19T09:09:48.841Z,89.31
2023-04-19T09:10:38.325Z,89.50
2023-04-19T09:11:38.339Z,88.45
2023-04-19T09:12:38.364Z,87.69
2023-04-19T09:13:38.379Z,88.26
2023-04-19T09:14:40.035Z,87.88
2023-04-19T09:15:38.476Z,87.98
2023-04-19T09:16:38.424Z,87.88
2023-04-19T09:17:38.768Z,87.88
2023-04-19T09:18:48.764Z,88.26
2023-04-19T09:19:38.525Z,88.07
2023-04-19T09:20:38.629Z,87.98
2023-04-19T09:21:38.581Z,87.83
2023-04-19T09:22:38.623Z,88.12
2023-04-19T09:23:38.580Z,87.74
2023-04-19T09:25:04.502Z,87.16
2023-04-19T09:25:52.812Z,86.30
2023-04-19T09:26:38.628Z,86.40
2023-04-19T09:27:38.611Z,86.40
2023-04-19T09:28:38.632Z,86.21
2023-04-19T09:29:38.716Z,86.40
2023-04-19T09:30:50.214Z,85.93
2023-04-19T09:32:38.847Z,86.30
2023-04-19T09:33:38.770Z,86.59
2023-04-19T09:34:38.716Z,86.30
2023-04-19T09:35:38.745Z,86.69
2023-04-19T09:36:38.754Z,86.98
2023-04-19T09:37:57.196Z,87.16
2023-04-19T09:38:38.786Z,87.54
2023-04-19T09:39:38.815Z,87.64
2023-04-19T09:40:38.822Z,86.69
2023-04-19T09:41:39.956Z,86.21
2023-04-19T09:42:55.447Z,85.16
2023-04-19T09:43:58.914Z,84.49
2023-04-19T09:45:38.911Z,83.06
2023-04-19T09:46:38.962Z,83.16
2023-04-19T09:47:38.968Z,83.83
2023-04-19T09:48:38.954Z,84.01
2023-04-19T09:49:48.595Z,83.25
2023-04-19T09:50:53.601Z,83.92
2023-04-19T09:51:39.002Z,83.25
2023-04-19T09:52:39.022Z,84.97
2023-04-19T09:53:39.042Z,84.97
2023-04-19T09:54:39.056Z,86.59
2023-04-19T09:55:48.867Z,87.16
2023-04-19T09:56:39.091Z,86.21
2023-04-19T09:57:39.128Z,85.93
2023-04-19T09:58:50.089Z,84.49
2023-04-19T09:59:39.138Z,84.72
2023-04-19T10:00:47.820Z,84.82
2023-04-19T10:01:39.199Z,85.01
2023-04-19T10:02:39.286Z,85.11
2023-04-19T10:03:39.428Z,84.34
2023-04-19T10:05:39.343Z,83.29
2023-04-19T10:06:58.271Z,83.67
2023-04-19T10:07:39.344Z,84.53
2023-04-19T10:08:39.297Z,83.87
2023-04-19T10:09:49.461Z,82.82
2023-04-19T10:10:42.322Z,83.11
2023-04-19T10:11:39.357Z,83.77
2023-04-19T10:13:07.013Z,83.83
2023-04-19T10:13:39.392Z,84.44
2023-04-19T10:14:39.396Z,85.30
2023-04-19T10:15:50.568Z,85.21
2023-04-19T10:16:39.456Z,84.16
2023-04-19T10:17:39.485Z,83.20
2023-04-19T10:18:39.470Z,84.92
2023-04-19T10:19:39.483Z,84.82
2023-04-19T10:20:39.510Z,84.34
2023-04-19T10:21:39.550Z,83.67
2023-04-19T10:22:39.541Z,82.86
2023-04-19T10:23:39.558Z,83.05
2023-04-19T10:24:39.593Z,82.57
2023-04-19T10:25:39.612Z,82.48
2023-04-19T10:26:39.616Z,82.00
2023-04-19T10:27:39.641Z,80.95
2023-04-19T10:28:39.656Z,80.09
2023-04-19T10:29:39.674Z,81.09
2023-04-19T10:30:39.696Z,81.09
2023-04-19T10:31:39.795Z,80.22
2023-04-19T10:32:39.771Z,79.17
2023-04-19T10:33:39.757Z,78.89
2023-04-19T10:34:39.796Z,78.79
2023-04-19T10:35:39.802Z,78.60
2023-04-19T10:36:39.837Z,77.84
2023-04-19T10:37:39.835Z,77.78
2023-04-19T10:38:39.853Z,79.02
2023-04-19T10:39:39.878Z,78.93
2023-04-19T10:40:39.970Z,77.87
2023-04-19T10:41:39.916Z,77.69
2023-04-19T10:42:39.935Z,78.45
2023-04-19T10:43:39.959Z,77.01
2023-04-19T10:44:39.985Z,77.69
2023-04-19T10:45:40.018Z,77.78
2023-04-19T10:46:40.175Z,77.97
2023-04-19T10:47:40.086Z,77.21
2023-04-19T10:48:40.069Z,77.11
2023-04-19T10:49:40.081Z,78.87
2023-04-19T10:50:40.150Z,77.34
2023-04-19T10:51:40.125Z,76.67
2023-04-19T10:52:40.151Z,76.42
2023-04-19T10:53:40.168Z,77.09
2023-04-19T10:54:40.198Z,76.75
2023-04-19T10:55:40.212Z,75.41
2023-04-19T10:56:40.237Z,74.58
2023-04-19T10:57:40.259Z,75.16
2023-04-19T10:58:40.281Z,72.58
2023-04-19T10:59:40.310Z,72.00
2023-04-19T11:00:40.361Z,73.44
2023-04-19T11:01:40.687Z,73.91
2023-04-19T11:02:40.533Z,74.52
2023-04-19T11:03:40.540Z,73.95
2023-04-19T11:04:40.566Z,73.47
2023-04-19T11:05:40.450Z,72.94
2023-04-19T11:06:40.481Z,70.92
2023-04-19T11:07:40.499Z,71.63
2023-04-19T11:08:40.527Z,71.53
2023-04-19T11:09:40.546Z,69.01
2023-04-19T11:10:40.596Z,68.95
2023-04-19T11:11:40.596Z,69.33
2023-04-19T11:12:40.621Z,70.38
2023-04-19T11:13:40.646Z,70.29
2023-04-19T11:14:40.687Z,68.85
2023-04-19T11:15:40.713Z,68.56
2023-04-19T11:16:46.097Z,68.85
2023-04-19T11:17:40.766Z,68.66
2023-04-19T11:18:40.769Z,68.56
2023-04-19T11:19:40.794Z,67.99
2023-04-19T11:20:40.903Z,67.99
2023-04-19T11:21:40.843Z,67.50
2023-04-19T11:22:40.873Z,67.50
2023-04-19T11:23:40.902Z,68.18
2023-04-19T11:24:40.921Z,68.85
2023-04-19T11:25:40.946Z,68.66
2023-04-19T11:26:40.965Z,68.75
2023-04-19T11:27:40.988Z,69.23
2023-04-19T11:28:41.023Z,68.62
2023-04-19T11:29:41.035Z,68.62
2023-04-19T11:30:41.125Z,69.10
2023-04-19T11:31:41.149Z,68.72
2023-04-19T11:32:41.118Z,68.91
2023-04-19T11:33:41.134Z,69.96
2023-04-19T11:34:41.154Z,69.20
2023-04-19T11:35:41.175Z,68.91
2023-04-19T11:36:41.196Z,69.26
2023-04-19T11:37:41.218Z,69.83
2023-04-19T11:38:41.239Z,68.78
2023-04-19T11:39:41.267Z,68.87
2023-04-19T11:40:41.289Z,69.07
2023-04-19T11:41:41.312Z,69.03
2023-04-19T11:42:41.335Z,68.87
2023-04-19T11:43:41.372Z,68.65
2023-04-19T11:44:41.380Z,69.60
2023-04-19T11:45:41.410Z,69.51
2023-04-19T11:46:41.497Z,70.95
2023-04-19T11:47:41.488Z,71.42
2023-04-19T11:48:41.506Z,71.81
2023-04-19T11:49:41.495Z,71.91
2023-04-19T11:50:41.530Z,72.90
2023-04-19T11:51:41.546Z,73.95
2023-04-19T11:52:41.554Z,72.99
2023-04-19T11:53:41.627Z,73.19
2023-04-19T11:54:41.602Z,71.84
2023-04-19T11:55:41.624Z,71.69
2023-04-19T11:56:41.644Z,71.40
2023-04-19T11:57:41.771Z,70.79
2023-04-19T11:58:41.685Z,69.26
2023-04-19T11:59:41.718Z,69.54
2023-04-19T12:00:41.761Z,70.56
2023-04-19T12:01:41.751Z,70.85
2023-04-19T12:02:41.898Z,72.29
2023-04-19T12:03:41.938Z,72.38
2023-04-19T12:04:42.103Z,72.29
2023-04-19T12:05:41.963Z,72.44
2023-04-19T12:06:41.861Z,71.77
2023-04-19T12:07:41.881Z,72.12
2023-04-19T12:08:41.902Z,72.88
2023-04-19T12:09:41.928Z,72.69
2023-04-19T12:10:41.943Z,72.31
2023-04-19T12:11:41.962Z,73.08
2023-04-19T12:12:41.978Z,72.31
2023-04-19T12:13:42.001Z,70.50
2023-04-19T12:14:42.019Z,69.92
2023-04-19T12:15:42.041Z,70.84
2023-04-19T12:16:42.109Z,71.70
2023-04-19T12:17:54.640Z,71.99
2023-04-19T12:18:42.099Z,72.98
2023-04-19T12:19:42.124Z,72.08
2023-04-19T12:20:42.136Z,72.79
2023-04-19T12:21:42.168Z,72.69
2023-04-19T12:22:42.178Z,74.13
2023-04-19T12:23:42.207Z,72.60
2023-04-19T12:24:42.218Z,72.69
2023-04-19T12:25:42.249Z,72.22
2023-04-19T12:26:42.259Z,72.31
2023-04-19T12:27:42.285Z,71.45
2023-04-19T12:28:42.304Z,72.41
2023-04-19T12:29:42.318Z,71.83
2023-04-19T12:30:42.359Z,71.73
2023-04-19T12:31:42.388Z,72.50
2023-04-19T12:32:42.404Z,71.26
2023-04-19T12:33:42.424Z,70.78
2023-04-19T12:34:42.415Z,71.51
2023-04-19T12:35:42.437Z,71.99
2023-04-19T12:36:42.465Z,72.47
2023-04-19T12:37:42.474Z,73.61
2023-04-19T12:38:42.491Z,73.23
2023-04-19T12:39:42.516Z,72.66
2023-04-19T12:40:42.530Z,73.43
2023-04-19T12:41:42.562Z,73.52
2023-04-19T12:42:42.573Z,73.80
2023-04-19T12:43:42.591Z,73.61
2023-04-19T12:44:42.609Z,73.99
2023-04-19T12:45:42.657Z,74.19
2023-04-19T12:46:42.646Z,74.38
2023-04-19T12:47:42.764Z,74.38
2023-04-19T12:48:42.681Z,74.66
2023-04-19T12:49:42.705Z,73.90
2023-04-19T12:50:42.759Z,74.28
2023-04-19T12:51:42.823Z,73.80
2023-04-19T12:52:42.776Z,73.43
2023-04-19T12:53:42.780Z,73.52
2023-04-19T12:54:42.832Z,73.43
2023-04-19T12:55:42.831Z,73.80